Time;durP1;ratioP1;P1;durP2;ratioP2;P2;SDS_P1;SDS_P2;PMS_P1;PMS_P2;Temp;Humidity;BMP_temperature;BMP_pressure;BME280_temperature;BME280_humidity;BME280_pressure;Samples;Min_cycle;Max_cycle;Signal;HPM_P1;HPM_P2
2023/12/10 00:00:46;;;;;;;;;;;128.10;2252.80;;;;;;5082380;28;19920;-75
2023/12/10 00:03:11;;;;;;;;;;;128.00;2252.80;;;;;;5074974;28;19913;-75
2023/12/10 00:05:37;;;;;;;;;;;128.00;2252.80;;;;;;5041797;28;20007;-75
2023/12/10 00:08:03;;;;;;;;;;;128.00;2252.80;;;;;;5068214;28;19920;-76
2023/12/10 00:10:28;;;;;;;;;;;128.10;2252.80;;;;;;5066449;28;20311;-75
2023/12/10 00:12:54;;;;;;;;;;;128.30;2252.80;;;;;;5069044;28;19919;-75
2023/12/10 00:15:20;;;;;;;;;;;128.30;2252.80;;;;;;5065127;28;19918;-75
2023/12/10 00:17:45;;;;;;;;;;;128.30;2252.80;;;;;;5071816;28;19938;-76
2023/12/10 00:20:11;;;;;;;;;;;128.30;2252.80;;;;;;5085502;28;19929;-75
2023/12/10 00:22:37;;;;;;;;;;;128.10;2252.80;;;;;;5064259;28;19909;-75
2023/12/10 00:25:02;;;;;;;;;;;128.00;2252.80;;;;;;5070695;28;19908;-76
2023/12/10 00:27:28;;;;;;;;;;;128.00;2252.80;;;;;;5074592;28;19930;-75
2023/12/10 00:29:54;;;;;;;;;;;128.00;2252.80;;;;;;5074372;28;20279;-75
2023/12/10 00:32:19;;;;;;;;;;;128.10;2252.80;;;;;;5074638;28;19908;-75
2023/12/10 00:34:45;;;;;;;;;;;128.10;2252.80;;;;;;5074600;28;19953;-76
2023/12/10 00:37:11;;;;;;;;;;;128.10;2252.80;;;;;;5056785;28;19909;-75
2023/12/10 00:39:37;;;;;;;;;;;128.00;2252.80;;;;;;5056668;28;19908;-76
2023/12/10 00:42:03;;;;;;;;;;;103.30;2227.20;;;;;;5074687;28;19917;-76
2023/12/10 00:44:29;;;;;;;;;;;128.00;2252.80;;;;;;5074165;28;19908;-75
2023/12/10 00:46:54;;;;;;;;;;;103.30;2227.20;;;;;;5090013;28;20023;-75
2023/12/10 00:49:20;;;;;;;;;;;128.00;2252.80;;;;;;5074389;28;19912;-76
2023/12/10 00:51:46;;;;;;;;;;;128.00;2252.80;;;;;;5055240;28;19916;-75
2023/12/10 00:54:11;;;;;;;;;;;128.00;2252.80;;;;;;5056519;28;19909;-75
2023/12/10 00:56:37;;;;;;;;;;;128.10;2252.80;;;;;;5074235;28;20007;-75
2023/12/10 00:59:03;;;;;;;;;;;128.30;2252.80;;;;;;5074036;28;20307;-76
2023/12/10 01:01:28;;;;;;;;;;;128.30;2252.80;;;;;;5074185;28;19916;-75
2023/12/10 01:03:54;;;;;;;;;;;128.40;2252.80;;;;;;5074181;28;20363;-76
2023/12/10 01:06:20;;;;;;;;;;;128.40;2252.80;;;;;;5074113;28;19908;-75
2023/12/10 01:08:45;;;;;;;;;;;128.50;2252.80;;;;;;5089736;28;19912;-75
2023/12/10 01:11:11;;;;;;;;;;;128.50;2252.80;;;;;;5073908;28;20003;-75
2023/12/10 01:13:37;;;;;;;;;;;128.50;2252.80;;;;;;5088900;28;19909;-76
2023/12/10 01:16:04;;;;;;;;;;;128.40;2252.80;;;;;;5073908;28;20033;-76
2023/12/10 01:18:32;;;;;;;;;;;128.40;2252.80;;;;;;5055764;28;19967;-74
2023/12/10 01:20:58;;;;;;;;;;;128.30;2252.80;;;;;;5089102;28;19920;-75
2023/12/10 01:23:24;;;;;;;;;;;128.00;2252.80;;;;;;5089088;28;19992;-76
2023/12/10 01:25:50;;;;;;;;;;;103.30;2227.20;;;;;;5055256;28;19918;-77
2023/12/10 01:28:15;;;;;;;;;;;103.00;2227.20;;;;;;5073853;28;19920;-76
2023/12/10 01:30:41;;;;;;;;;;;102.90;2227.20;;;;;;5055208;28;19909;-75
2023/12/10 01:33:07;;;;;;;;;;;102.80;2227.20;;;;;;5073762;28;19909;-75
2023/12/10 01:35:33;;;;;;;;;;;102.80;2227.20;;;;;;5054862;28;19909;-76
2023/12/10 01:37:59;;;;;;;;;;;102.80;2227.20;;;;;;5055541;28;19934;-76
2023/12/10 01:40:24;;;;;;;;;;;102.80;2227.20;;;;;;5055591;28;19923;-75
2023/12/10 01:42:50;;;;;;;;;;;102.80;2227.20;;;;;;5073445;28;19915;-76
2023/12/10 01:45:18;;;;;;;;;;;102.80;2227.20;;;;;;5073414;28;20261;-76
2023/12/10 01:47:45;;;;;;;;;;;102.90;2227.20;;;;;;5073376;28;20360;-76
2023/12/10 01:50:11;;;;;;;;;;;102.90;2227.20;;;;;;5073505;28;19913;-76
2023/12/10 01:52:38;;;;;;;;;;;103.00;2227.20;;;;;;5073474;28;20378;-76
2023/12/10 01:55:04;;;;;;;;;;;103.00;2227.20;;;;;;5055457;28;19920;-75
2023/12/10 01:57:32;;;;;;;;;;;103.00;2227.20;;;;;;5073493;28;19923;-75
2023/12/10 01:59:58;;;;;;;;;;;103.00;2227.20;;;;;;5073314;28;19912;-76
2023/12/10 02:02:24;;;;;;;;;;;103.00;2227.20;;;;;;5073513;28;19915;-76
2023/12/10 02:04:53;;;;;;;;;;;102.90;2227.20;;;;;;5073616;28;20349;-75
2023/12/10 02:07:21;;;;;;;;;;;102.70;2227.20;;;;;;5073292;28;20003;-75
2023/12/10 02:09:47;;;;;;;;;;;102.60;2227.20;;;;;;5088885;28;19913;-76
2023/12/10 02:12:13;;;;;;;;;;;102.60;2227.20;;;;;;5055477;28;19908;-75
2023/12/10 02:14:39;;;;;;;;;;;102.70;2227.20;;;;;;5088669;28;19932;-76
2023/12/10 02:17:04;;;;;;;;;;;102.80;2227.20;;;;;;5073071;28;19979;-76
2023/12/10 02:19:30;;;;;;;;;;;102.80;2227.20;;;;;;5088897;28;19912;-75
2023/12/10 02:21:56;;;;;;;;;;;102.50;2227.20;;;;;;5088867;28;20288;-75
2023/12/10 02:24:25;;;;;;;;;;;102.50;2227.20;;;;;;5055125;28;19923;-76
2023/12/10 02:26:51;;;;;;;;;;;102.50;2227.20;;;;;;5088862;28;19913;-75
2023/12/10 02:29:17;;;;;;;;;;;102.60;2227.20;;;;;;5073081;28;19913;-75
2023/12/10 02:31:43;;;;;;;;;;;102.60;2227.20;;;;;;5055034;28;19912;-75
2023/12/10 02:34:08;;;;;;;;;;;102.70;2227.20;;;;;;5073193;28;19915;-75
2023/12/10 02:36:34;;;;;;;;;;;102.70;2227.20;;;;;;5073152;28;20394;-75
2023/12/10 02:38:59;;;;;;;;;;;102.80;2227.20;;;;;;5073150;28;19908;-75
2023/12/10 02:41:25;;;;;;;;;;;102.80;2227.20;;;;;;5088725;28;19923;-76
2023/12/10 02:43:51;;;;;;;;;;;102.80;2227.20;;;;;;5073091;28;19913;-75
2023/12/10 02:46:16;;;;;;;;;;;102.80;2227.20;;;;;;5074325;28;19909;-75
2023/12/10 02:48:42;;;;;;;;;;;102.70;2227.20;;;;;;5076529;28;19912;-76
2023/12/10 02:51:08;;;;;;;;;;;102.70;2227.20;;;;;;5058701;28;19912;-76
2023/12/10 02:53:33;;;;;;;;;;;102.70;2227.20;;;;;;5092467;28;19915;-75
2023/12/10 02:55:59;;;;;;;;;;;102.80;2227.20;;;;;;5076268;28;19912;-75
2023/12/10 02:58:24;;;;;;;;;;;102.80;2227.20;;;;;;5076591;28;20379;-76
2023/12/10 03:00:50;;;;;;;;;;;102.80;2227.20;;;;;;5076132;28;20011;-75
2023/12/10 03:03:15;;;;;;;;;;;102.80;2227.20;;;;;;5092188;28;20002;-76
2023/12/10 03:05:41;;;;;;;;;;;102.80;2227.20;;;;;;5058006;28;19916;-75
2023/12/10 03:08:07;;;;;;;;;;;102.80;2227.20;;;;;;5076129;28;19931;-75
2023/12/10 03:10:32;;;;;;;;;;;102.90;2227.20;;;;;;5076265;28;19908;-75
2023/12/10 03:12:58;;;;;;;;;;;102.80;2227.20;;;;;;5076165;28;20353;-76
2023/12/10 03:15:24;;;;;;;;;;;102.80;2227.20;;;;;;5076233;28;20376;-75
2023/12/10 03:17:49;;;;;;;;;;;102.80;2227.20;;;;;;5091578;28;19920;-75
2023/12/10 03:20:15;;;;;;;;;;;102.60;2227.20;;;;;;5058212;28;19927;-75
2023/12/10 03:22:40;;;;;;;;;;;77.70;2227.20;;;;;;5076199;28;19963;-75
2023/12/10 03:25:06;;;;;;;;;;;77.70;2227.20;;;;;;5057268;28;19913;-75
2023/12/10 03:27:32;;;;;;;;;;;77.50;2227.20;;;;;;5091802;28;19943;-75
2023/12/10 03:29:57;;;;;;;;;;;77.40;2227.20;;;;;;5058001;28;19916;-75
2023/12/10 03:32:23;;;;;;;;;;;77.30;2227.20;;;;;;5075950;28;19913;-75
2023/12/10 03:34:49;;;;;;;;;;;77.30;2227.20;;;;;;5091413;28;19916;-75
2023/12/10 03:37:14;;;;;;;;;;;77.20;2227.20;;;;;;5075743;28;20303;-75
2023/12/10 03:39:40;;;;;;;;;;;77.20;2227.20;;;;;;5075931;28;19909;-75
2023/12/10 03:42:05;;;;;;;;;;;77.30;2227.20;;;;;;5075614;28;19935;-75
2023/12/10 03:44:32;;;;;;;;;;;77.30;2227.20;;;;;;5075941;28;19915;-75
2023/12/10 03:47:04;;;;;;;;;;;77.40;2227.20;;;;;;5075415;28;19958;-75
2023/12/10 03:49:29;;;;;;;;;;;77.40;2227.20;;;;;;5091385;28;20003;-76
2023/12/10 03:51:55;;;;;;;;;;;77.40;2227.20;;;;;;5075592;28;20051;-75
2023/12/10 03:54:21;;;;;;;;;;;77.40;2227.20;;;;;;5075609;28;19909;-76
2023/12/10 03:56:47;;;;;;;;;;;77.40;2227.20;;;;;;5075271;28;19915;-75
2023/12/10 03:59:12;;;;;;;;;;;77.40;2227.20;;;;;;5074681;28;20261;-75
2023/12/10 04:01:42;;;;;;;;;;;77.40;2227.20;;;;;;5075059;28;20337;-75
2023/12/10 04:04:08;;;;;;;;;;;77.30;2227.20;;;;;;5057342;28;19969;-75
2023/12/10 04:06:37;;;;;;;;;;;77.20;2227.20;;;;;;5075228;28;20335;-75
2023/12/10 04:09:03;;;;;;;;;;;77.10;2227.20;;;;;;5057199;28;19947;-75
2023/12/10 04:11:28;;;;;;;;;;;77.10;2227.20;;;;;;5075182;28;19908;-76
2023/12/10 04:13:54;;;;;;;;;;;77.20;2227.20;;;;;;5075178;28;19909;-75
2023/12/10 04:16:28;;;;;;;;;;;77.30;2227.20;;;;;;5056982;28;20348;-75
2023/12/10 04:18:53;;;;;;;;;;;77.20;2227.20;;;;;;5074961;28;19925;-76
2023/12/10 04:21:20;;;;;;;;;;;77.20;2227.20;;;;;;5090739;28;19962;-75
2023/12/10 04:23:45;;;;;;;;;;;77.10;2227.20;;;;;;5074987;28;19920;-75
2023/12/10 04:26:11;;;;;;;;;;;77.00;2227.20;;;;;;5089576;28;19908;-75
2023/12/10 04:28:40;;;;;;;;;;;77.00;2227.20;;;;;;5075027;28;19918;-75
2023/12/10 04:31:06;;;;;;;;;;;76.90;2227.20;;;;;;5056790;28;19915;-75
2023/12/10 04:33:32;;;;;;;;;;;76.90;2227.20;;;;;;5056739;28;19908;-75
2023/12/10 04:35:57;;;;;;;;;;;76.80;2227.20;;;;;;5074677;28;19908;-75
2023/12/10 04:38:23;;;;;;;;;;;76.80;2227.20;;;;;;5074676;28;19909;-75
2023/12/10 04:40:48;;;;;;;;;;;76.90;2227.20;;;;;;5074568;28;19916;-76
2023/12/10 04:43:14;;;;;;;;;;;76.80;2227.20;;;;;;5074704;28;19962;-75
2023/12/10 04:45:40;;;;;;;;;;;76.90;2227.20;;;;;;5074418;28;20356;-75
2023/12/10 04:48:06;;;;;;;;;;;76.90;2227.20;;;;;;5089793;28;20039;-75
2023/12/10 04:50:32;;;;;;;;;;;76.80;2227.20;;;;;;5090161;28;19962;-76
2023/12/10 04:52:57;;;;;;;;;;;52.10;2227.20;;;;;;5056500;28;20386;-75
2023/12/10 04:55:23;;;;;;;;;;;52.10;2227.20;;;;;;5074278;28;19908;-75
2023/12/10 04:57:48;;;;;;;;;;;76.90;2227.20;;;;;;5074399;28;20308;-75
2023/12/10 05:00:15;;;;;;;;;;;76.90;2227.20;;;;;;5074103;28;19909;-75
2023/12/10 05:02:41;;;;;;;;;;;76.90;2227.20;;;;;;5073918;28;19934;-75
2023/12/10 05:05:08;;;;;;;;;;;76.90;2227.20;;;;;;5074095;28;19909;-75
2023/12/10 05:07:34;;;;;;;;;;;52.10;2227.20;;;;;;5074149;28;19944;-75
2023/12/10 05:10:00;;;;;;;;;;;51.70;2227.20;;;;;;5074054;28;20501;-75
2023/12/10 05:12:26;;;;;;;;;;;51.80;2227.20;;;;;;5074093;28;19943;-75
2023/12/10 05:14:51;;;;;;;;;;;51.80;2227.20;;;;;;5074050;28;19952;-75
2023/12/10 05:17:17;;;;;;;;;;;51.70;2227.20;;;;;;5073613;28;19920;-75
2023/12/10 05:19:42;;;;;;;;;;;51.80;2227.20;;;;;;5073829;28;20398;-76
2023/12/10 05:22:08;;;;;;;;;;;52.10;2227.20;;;;;;5073731;28;19976;-75
2023/12/10 05:24:34;;;;;;;;;;;76.90;2227.20;;;;;;5073864;28;19991;-76
2023/12/10 05:26:59;;;;;;;;;;;76.80;2227.20;;;;;;5074066;28;19915;-75
2023/12/10 05:29:25;;;;;;;;;;;76.90;2227.20;;;;;;5071266;28;19912;-75
2023/12/10 05:31:50;;;;;;;;;;;77.10;2227.20;;;;;;5069271;28;20031;-75
2023/12/10 05:34:16;;;;;;;;;;;77.00;2227.20;;;;;;5091740;28;19913;-74
2023/12/10 05:36:41;;;;;;;;;;;76.80;2227.20;;;;;;5063917;28;19908;-74
2023/12/10 05:39:08;;;;;;;;;;;52.00;2227.20;;;;;;5074857;28;19951;-75
2023/12/10 05:41:33;;;;;;;;;;;76.80;2227.20;;;;;;5075988;28;19920;-75
2023/12/10 05:43:59;;;;;;;;;;;52.00;2227.20;;;;;;5049511;28;20413;-75
2023/12/10 05:46:25;;;;;;;;;;;52.10;2227.20;;;;;;5087067;28;20376;-75
2023/12/10 05:48:50;;;;;;;;;;;52.00;2227.20;;;;;;5076198;28;19917;-75
2023/12/10 05:51:16;;;;;;;;;;;52.00;2227.20;;;;;;5070909;28;20304;-76
2023/12/10 05:53:41;;;;;;;;;;;51.90;2227.20;;;;;;5071511;28;19915;-75
2023/12/10 05:56:08;;;;;;;;;;;51.90;2227.20;;;;;;5070011;28;20357;-75
2023/12/10 05:58:33;;;;;;;;;;;51.80;2227.20;;;;;;5080099;28;19908;-75
2023/12/10 06:00:59;;;;;;;;;;;52.00;2227.20;;;;;;5065298;28;20318;-76
2023/12/10 06:03:24;;;;;;;;;;;52.00;2227.20;;;;;;5067219;28;20414;-75
2023/12/10 06:05:50;;;;;;;;;;;51.90;2227.20;;;;;;5065625;28;19959;-75
2023/12/10 06:08:16;;;;;;;;;;;51.80;2227.20;;;;;;5066861;28;19920;-75
2023/12/10 06:10:42;;;;;;;;;;;51.90;2227.20;;;;;;5063434;28;19912;-75
2023/12/10 06:13:08;;;;;;;;;;;51.90;2227.20;;;;;;5091141;28;19967;-75
2023/12/10 06:15:33;;;;;;;;;;;51.80;2227.20;;;;;;5090181;28;20318;-75
2023/12/10 06:17:59;;;;;;;;;;;51.80;2227.20;;;;;;5092554;28;19920;-75
2023/12/10 06:20:25;;;;;;;;;;;51.80;2227.20;;;;;;5069554;28;19924;-75
2023/12/10 06:22:50;;;;;;;;;;;51.80;2227.20;;;;;;5069323;28;19913;-75
2023/12/10 06:25:16;;;;;;;;;;;51.80;2227.20;;;;;;5082221;28;19920;-76
2023/12/10 06:27:41;;;;;;;;;;;51.70;2227.20;;;;;;5070641;28;20367;-75
2023/12/10 06:30:10;;;;;;;;;;;51.70;1971.20;;;;;;5094769;28;20352;-75
2023/12/10 06:32:35;;;;;;;;;;;51.70;2227.20;;;;;;5092954;28;19916;-75
2023/12/10 06:35:01;;;;;;;;;;;51.90;2227.20;;;;;;5083025;28;19920;-75
2023/12/10 06:37:26;;;;;;;;;;;51.90;2227.20;;;;;;5094982;28;19988;-75
2023/12/10 06:39:52;;;;;;;;;;;51.90;2227.20;;;;;;5058772;28;19909;-74
2023/12/10 06:42:18;;;;;;;;;;;52.00;2227.20;;;;;;5068126;28;19917;-75
2023/12/10 06:44:43;;;;;;;;;;;51.90;2227.20;;;;;;5059909;28;19912;-75
2023/12/10 06:47:09;;;;;;;;;;;52.00;2227.20;;;;;;5059913;28;20382;-75
2023/12/10 06:49:35;;;;;;;;;;;52.10;2227.20;;;;;;5071048;28;19920;-76
2023/12/10 06:52:00;;;;;;;;;;;76.80;2227.20;;;;;;5071884;28;19916;-76
2023/12/10 06:54:26;;;;;;;;;;;76.90;2227.20;;;;;;5069445;28;19991;-75
2023/12/10 06:56:51;;;;;;;;;;;76.90;2227.20;;;;;;5071731;28;19912;-76
2023/12/10 06:59:17;;;;;;;;;;;76.80;2227.20;;;;;;5097943;28;20326;-75
2023/12/10 07:01:43;;;;;;;;;;;52.10;2227.20;;;;;;5072460;28;20360;-76
2023/12/10 07:04:08;;;;;;;;;;;52.10;2227.20;;;;;;5062426;28;19939;-76
2023/12/10 07:06:34;;;;;;;;;;;76.80;2227.20;;;;;;5071598;28;19935;-75
2023/12/10 07:09:00;;;;;;;;;;;76.90;2227.20;;;;;;5056670;28;20025;-78
2023/12/10 07:11:26;;;;;;;;;;;76.90;2227.20;;;;;;5056803;28;20039;-77
2023/12/10 07:13:53;;;;;;;;;;;76.90;2227.20;;;;;;5075450;28;19913;-75
2023/12/10 07:16:21;;;;;;;;;;;76.90;2227.20;;;;;;5085891;28;19908;-75
2023/12/10 07:18:47;;;;;;;;;;;76.90;2227.20;;;;;;5074570;28;19929;-76
2023/12/10 07:21:12;;;;;;;;;;;76.80;2227.20;;;;;;5060342;28;19931;-76
2023/12/10 07:23:38;;;;;;;;;;;76.90;2227.20;;;;;;5061619;28;19912;-76
2023/12/10 07:26:04;;;;;;;;;;;76.90;2227.20;;;;;;5085772;28;19913;-75
2023/12/10 07:28:30;;;;;;;;;;;76.90;2227.20;;;;;;5089063;28;19908;-77
2023/12/10 07:30:55;;;;;;;;;;;76.80;2227.20;;;;;;5060676;28;19948;-76
2023/12/10 07:33:21;;;;;;;;;;;76.90;2227.20;;;;;;5069161;28;19912;-76
2023/12/10 07:35:47;;;;;;;;;;;76.90;2227.20;;;;;;5078323;28;19923;-76
2023/12/10 07:38:13;;;;;;;;;;;76.90;2227.20;;;;;;5058536;28;19945;-76
2023/12/10 07:40:39;;;;;;;;;;;76.80;2048.00;;;;;;5085961;28;20352;-76
2023/12/10 07:43:05;;;;;;;;;;;76.90;1868.80;;;;;;5040822;28;19913;-77
2023/12/10 07:45:30;;;;;;;;;;;76.90;1971.20;;;;;;5067066;28;19912;-76
2023/12/10 07:47:56;;;;;;;;;;;76.80;2227.20;;;;;;5081793;28;19912;-76
2023/12/10 07:50:22;;;;;;;;;;;77.00;2227.20;;;;;;5066561;28;19924;-78
2023/12/10 07:52:47;;;;;;;;;;;77.10;2150.40;;;;;;5055220;28;19917;-77
2023/12/10 07:55:13;;;;;;;;;;;77.00;2227.20;;;;;;5083748;28;19913;-78
2023/12/10 07:57:38;;;;;;;;;;;77.00;2227.20;;;;;;5055529;28;19955;-77
2023/12/10 08:00:07;;;;;;;;;;;77.00;2048.00;;;;;;5083996;28;20875;-77
2023/12/10 08:02:33;;;;;;;;;;;76.90;2201.60;;;;;;5063573;28;20421;-76
2023/12/10 08:04:59;;;;;;;;;;;77.20;2124.80;;;;;;5076995;28;19912;-74
2023/12/10 08:07:25;;;;;;;;;;;77.10;2227.20;;;;;;5065836;28;19920;-75
2023/12/10 08:09:50;;;;;;;;;;;77.30;2227.20;;;;;;5081578;28;19962;-76
2023/12/10 08:12:16;;;;;;;;;;;77.30;2227.20;;;;;;5071404;28;20395;-74
2023/12/10 08:14:42;;;;;;;;;;;77.30;2227.20;;;;;;5071723;28;20042;-74
2023/12/10 08:17:07;;;;;;;;;;;77.30;2227.20;;;;;;5067169;28;20284;-75
2023/12/10 08:19:33;;;;;;;;;;;77.30;2227.20;;;;;;5073001;28;19916;-76
2023/12/10 08:21:59;;;;;;;;;;;77.20;2227.20;;;;;;5067780;28;20010;-71
2023/12/10 08:24:26;;;;;;;;;;;77.20;2227.20;;;;;;5065637;28;19915;-74
2023/12/10 08:26:52;;;;;;;;;;;77.20;2227.20;;;;;;5072426;28;19913;-75
2023/12/10 08:29:18;;;;;;;;;;;77.20;1971.20;;;;;;5083782;28;19924;-73
2023/12/10 08:31:44;;;;;;;;;;;77.20;1996.80;;;;;;5081156;28;19918;-74
2023/12/10 08:34:09;;;;;;;;;;;77.40;2227.20;;;;;;5093729;28;19986;-73
2023/12/10 08:36:35;;;;;;;;;;;77.30;1894.40;;;;;;5071239;28;19913;-75
2023/12/10 08:39:02;;;;;;;;;;;77.00;2227.20;;;;;;5070515;28;20303;-75
2023/12/10 08:41:27;;;;;;;;;;;77.40;2227.20;;;;;;5072948;28;19985;-74
2023/12/10 08:43:53;;;;;;;;;;;77.40;2227.20;;;;;;5070102;28;20348;-75
2023/12/10 08:46:18;;;;;;;;;;;77.30;2227.20;;;;;;5067228;28;20022;-75
2023/12/10 08:48:45;;;;;;;;;;;77.40;2227.20;;;;;;5081040;28;20002;-76
2023/12/10 08:51:11;;;;;;;;;;;77.50;2176.00;;;;;;5059206;28;20015;-76
2023/12/10 08:53:36;;;;;;;;;;;77.50;2227.20;;;;;;5082905;28;20047;-77
2023/12/10 08:56:02;;;;;;;;;;;77.50;2048.00;;;;;;5064652;28;19920;-76
2023/12/10 08:58:30;;;;;;;;;;;77.60;2176.00;;;;;;5091275;28;19915;-75
2023/12/10 09:00:55;;;;;;;;;;;77.70;2227.20;;;;;;5094349;28;19982;-76
2023/12/10 09:03:21;;;;;;;;;;;77.60;2227.20;;;;;;5048763;28;20663;-76
2023/12/10 09:05:46;;;;;;;;;;;77.60;2227.20;;;;;;5052952;28;19916;-76
2023/12/10 09:08:12;;;;;;;;;;;77.50;2227.20;;;;;;5085616;28;19913;-76
2023/12/10 09:10:38;;;;;;;;;;;77.70;1868.80;;;;;;5060661;28;20024;-76
2023/12/10 09:13:03;;;;;;;;;;;77.70;2227.20;;;;;;5072141;28;19991;-76
2023/12/10 09:15:29;;;;;;;;;;;102.40;2227.20;;;;;;5046590;28;20010;-76
2023/12/10 09:17:55;;;;;;;;;;;102.40;2227.20;;;;;;5069417;28;20368;-76
2023/12/10 09:20:20;;;;;;;;;;;102.50;2227.20;;;;;;5057411;28;19926;-76
2023/12/10 09:22:48;;;;;;;;;;;102.60;2227.20;;;;;;5078836;28;21335;-76
2023/12/10 09:25:14;;;;;;;;;;;102.60;2227.20;;;;;;5070818;28;19996;-76
2023/12/10 09:27:40;;;;;;;;;;;102.70;2227.20;;;;;;5087197;28;20368;-76
2023/12/10 09:30:06;;;;;;;;;;;102.60;2227.20;;;;;;5073610;28;19920;-76
2023/12/10 09:32:32;;;;;;;;;;;102.70;2227.20;;;;;;5046601;28;20329;-76
2023/12/10 09:34:58;;;;;;;;;;;102.60;2227.20;;;;;;5092066;28;19965;-76
2023/12/10 09:37:23;;;;;;;;;;;102.60;2227.20;;;;;;5046827;28;20011;-74
2023/12/10 09:39:49;;;;;;;;;;;102.80;2227.20;;;;;;5078464;28;19991;-75
2023/12/10 09:42:15;;;;;;;;;;;102.70;2227.20;;;;;;5065816;28;20352;-76
2023/12/10 09:44:41;;;;;;;;;;;102.80;2227.20;;;;;;5069954;28;19919;-76
2023/12/10 09:47:07;;;;;;;;;;;102.80;2227.20;;;;;;5067340;28;19916;-76
2023/12/10 09:49:33;;;;;;;;;;;102.70;2227.20;;;;;;5056465;28;19976;-76
2023/12/10 09:51:59;;;;;;;;;;;102.60;2227.20;;;;;;5062077;28;19916;-76
2023/12/10 09:54:25;;;;;;;;;;;102.60;2150.40;;;;;;5072588;28;19908;-76
2023/12/10 09:56:51;;;;;;;;;;;102.70;2048.00;;;;;;5064346;28;20287;-77
2023/12/10 09:59:17;;;;;;;;;;;102.70;2227.20;;;;;;5086687;28;19908;-77
2023/12/10 10:01:50;;;;;;;;;;;102.60;2227.20;;;;;;5087067;28;19949;-76
2023/12/10 10:04:16;;;;;;;;;;;102.60;1945.60;;;;;;5059495;28;19948;-76
2023/12/10 10:06:42;;;;;;;;;;;102.60;2227.20;;;;;;5080414;28;20428;-77
2023/12/10 10:09:07;;;;;;;;;;;102.70;2227.20;;;;;;5068757;28;20007;-76
2023/12/10 10:11:33;;;;;;;;;;;102.70;2227.20;;;;;;5057474;28;19920;-76
2023/12/10 10:13:59;;;;;;;;;;;102.70;2227.20;;;;;;5050788;28;19912;-76
2023/12/10 10:16:25;;;;;;;;;;;102.80;2227.20;;;;;;5073902;28;20772;-77
2023/12/10 10:18:51;;;;;;;;;;;103.00;1843.20;;;;;;5088694;28;19972;-77
2023/12/10 10:21:16;;;;;;;;;;;103.20;2227.20;;;;;;5080699;28;19920;-76
2023/12/10 10:23:42;;;;;;;;;;;103.20;2227.20;;;;;;5067377;28;19913;-76
2023/12/10 10:26:08;;;;;;;;;;;103.10;2227.20;;;;;;5060252;28;19967;-77
2023/12/10 10:28:35;;;;;;;;;;;103.10;2048.00;;;;;;5068003;28;19920;-76
2023/12/10 10:31:01;;;;;;;;;;;103.00;2150.40;;;;;;5054267;28;19944;-76
2023/12/10 10:33:27;;;;;;;;;;;103.00;1843.20;;;;;;5052767;28;19927;-75
2023/12/10 10:35:53;;;;;;;;;;;103.00;2227.20;;;;;;5058424;28;19913;-76
2023/12/10 10:38:20;;;;;;;;;;;103.10;2227.20;;;;;;5069990;28;19913;-76
2023/12/10 10:40:49;;;;;;;;;;;103.10;2227.20;;;;;;5049744;28;19920;-76
2023/12/10 10:43:15;;;;;;;;;;;103.20;2227.20;;;;;;5069919;28;19952;-76
2023/12/10 10:45:41;;;;;;;;;;;103.30;2227.20;;;;;;5058892;28;19952;-75
2023/12/10 10:48:07;;;;;;;;;;;103.30;1996.80;;;;;;5063578;28;19923;-75
2023/12/10 10:50:35;;;;;;;;;;;128.10;2252.80;;;;;;5054029;28;20003;-76
2023/12/10 10:53:01;;;;;;;;;;;128.00;2252.80;;;;;;5067941;28;19936;-76
2023/12/10 10:55:27;;;;;;;;;;;103.00;2227.20;;;;;;5079222;28;19916;-77
2023/12/10 10:57:54;;;;;;;;;;;128.20;2252.80;;;;;;5063914;28;20413;-76
2023/12/10 11:00:22;;;;;;;;;;;128.30;2252.80;;;;;;5088991;28;19972;-77
2023/12/10 11:02:49;;;;;;;;;;;128.20;2252.80;;;;;;5067073;28;19917;-78
2023/12/10 11:05:34;;;;;;;;;;;128.30;2252.80;;;;;;5058786;28;20011;-77
2023/12/10 11:08:00;;;;;;;;;;;128.30;2252.80;;;;;;5050125;28;20113;-76
2023/12/10 11:10:25;;;;;;;;;;;128.20;2252.80;;;;;;5056743;28;20376;-77
2023/12/10 11:12:53;;;;;;;;;;;128.30;2252.80;;;;;;5077047;28;19927;-77
2023/12/10 11:15:23;;;;;;;;;;;128.20;2252.80;;;;;;5070462;28;19909;-77
2023/12/10 11:17:53;;;;;;;;;;;128.20;2252.80;;;;;;5057315;28;19969;-76
2023/12/10 11:20:37;;;;;;;;;;;128.30;2252.80;;;;;;5080023;28;19924;-78
2023/12/10 11:23:04;;;;;;;;;;;128.40;2176.00;;;;;;5096315;28;19916;-78
2023/12/10 11:25:30;;;;;;;;;;;128.40;2099.20;;;;;;5060446;28;20003;-77
2023/12/10 11:27:57;;;;;;;;;;;128.40;2252.80;;;;;;5077888;28;20283;-78
2023/12/10 11:30:23;;;;;;;;;;;128.30;2252.80;;;;;;5064141;28;20379;-77
2023/12/10 11:32:49;;;;;;;;;;;128.30;2252.80;;;;;;5060489;28;19975;-77
2023/12/10 11:35:14;;;;;;;;;;;128.30;2252.80;;;;;;5097876;28;19912;-78
2023/12/10 11:37:43;;;;;;;;;;;128.40;2252.80;;;;;;5099280;28;20292;-77
2023/12/10 11:40:09;;;;;;;;;;;128.40;2252.80;;;;;;5088625;28;20395;-75
2023/12/10 11:42:35;;;;;;;;;;;128.40;1996.80;;;;;;5052874;28;19916;-76
2023/12/10 11:45:00;;;;;;;;;;;128.50;2252.80;;;;;;5064962;28;20008;-77
2023/12/10 11:47:26;;;;;;;;;;;128.30;2150.40;;;;;;5056144;28;19919;-77
2023/12/10 11:49:54;;;;;;;;;;;128.40;2227.20;;;;;;5082991;28;19978;-75
2023/12/10 11:52:19;;;;;;;;;;;128.40;2252.80;;;;;;5056788;28;19913;-76
2023/12/10 11:54:45;;;;;;;;;;;128.50;2252.80;;;;;;5066616;28;19970;-75
2023/12/10 11:57:11;;;;;;;;;;;128.40;2176.00;;;;;;5075795;28;19916;-75
2023/12/10 11:59:36;;;;;;;;;;;128.40;1920.00;;;;;;5101286;28;20007;-76
2023/12/10 12:02:02;;;;;;;;;;;128.40;2252.80;;;;;;5075702;28;19916;-76
2023/12/10 12:04:28;;;;;;;;;;;128.30;1971.20;;;;;;5076649;28;19916;-74
2023/12/10 12:06:53;;;;;;;;;;;128.30;2252.80;;;;;;5070067;28;19950;-76
2023/12/10 12:09:22;;;;;;;;;;;128.30;2252.80;;;;;;5087388;28;20284;-77
2023/12/10 12:11:51;;;;;;;;;;;128.20;2252.80;;;;;;5068992;28;20041;-77
2023/12/10 12:14:17;;;;;;;;;;;128.20;2252.80;;;;;;5046116;28;19920;-76
2023/12/10 12:16:42;;;;;;;;;;;128.20;2252.80;;;;;;5071292;28;20265;-78
2023/12/10 12:19:08;;;;;;;;;;;128.20;2252.80;;;;;;5066982;28;19932;-77
2023/12/10 12:21:34;;;;;;;;;;;128.20;2252.80;;;;;;5049714;28;19920;-77
2023/12/10 12:23:59;;;;;;;;;;;128.30;2252.80;;;;;;5065604;28;19912;-77
2023/12/10 12:26:25;;;;;;;;;;;128.40;2252.80;;;;;;5069132;28;19913;-77
2023/12/10 12:28:51;;;;;;;;;;;128.40;2252.80;;;;;;5070822;28;20014;-77
2023/12/10 12:31:16;;;;;;;;;;;128.40;2252.80;;;;;;5073563;28;19977;-77
2023/12/10 12:33:42;;;;;;;;;;;128.30;2252.80;;;;;;5070423;28;19913;-76
2023/12/10 12:36:08;;;;;;;;;;;128.40;2252.80;;;;;;5071596;28;20360;-76
2023/12/10 12:38:33;;;;;;;;;;;128.40;2252.80;;;;;;5066330;28;20384;-77
2023/12/10 12:40:59;;;;;;;;;;;128.40;2252.80;;;;;;5062166;28;19920;-77
2023/12/10 12:43:25;;;;;;;;;;;128.30;2252.80;;;;;;5079152;28;19963;-77
2023/12/10 12:45:50;;;;;;;;;;;128.30;2252.80;;;;;;5083304;28;20017;-77
2023/12/10 12:48:16;;;;;;;;;;;128.40;2252.80;;;;;;5079556;28;20008;-76
2023/12/10 12:50:42;;;;;;;;;;;128.40;2252.80;;;;;;5096397;28;19917;-76
2023/12/10 12:53:07;;;;;;;;;;;128.40;2252.80;;;;;;5052497;28;19912;-77
2023/12/10 12:55:33;;;;;;;;;;;128.40;2252.80;;;;;;5075505;28;19916;-76
2023/12/10 12:57:58;;;;;;;;;;;128.30;2252.80;;;;;;5077508;28;19909;-77
2023/12/10 13:00:24;;;;;;;;;;;128.40;2252.80;;;;;;5084816;28;19999;-76
2023/12/10 13:02:50;;;;;;;;;;;128.40;2252.80;;;;;;5067863;28;19920;-77
2023/12/10 13:05:15;;;;;;;;;;;128.40;2252.80;;;;;;5092126;28;19912;-78
2023/12/10 13:07:41;;;;;;;;;;;128.40;2252.80;;;;;;5069381;28;19912;-77
2023/12/10 13:10:08;;;;;;;;;;;128.30;2252.80;;;;;;5088433;28;19913;-76
2023/12/10 13:12:34;;;;;;;;;;;128.30;2252.80;;;;;;5056119;28;19909;-76
2023/12/10 13:15:00;;;;;;;;;;;128.30;2252.80;;;;;;5066655;28;19913;-77
2023/12/10 13:17:25;;;;;;;;;;;128.40;2252.80;;;;;;5066574;28;20348;-77
2023/12/10 13:19:51;;;;;;;;;;;128.50;2048.00;;;;;;5069654;28;19930;-77
2023/12/10 13:22:16;;;;;;;;;;;128.50;2252.80;;;;;;5072018;28;19931;-77
2023/12/10 13:24:42;;;;;;;;;;;128.50;2252.80;;;;;;5073816;28;19959;-77
2023/12/10 13:27:08;;;;;;;;;;;128.60;2252.80;;;;;;5063859;28;19908;-76
2023/12/10 13:29:34;;;;;;;;;;;128.80;2252.80;;;;;;5067401;28;19916;-77
2023/12/10 13:32:00;;;;;;;;;;;128.80;2252.80;;;;;;5074941;28;19991;-76
2023/12/10 13:34:26;;;;;;;;;;;128.80;2252.80;;;;;;5072468;28;19918;-77
2023/12/10 13:36:52;;;;;;;;;;;128.80;2252.80;;;;;;5053259;28;20283;-77
2023/12/10 13:39:17;;;;;;;;;;;128.90;2252.80;;;;;;5074663;28;19916;-76